Terminal Aerodrome Forecast
Issued by NWS Missoula, MT

Home | Current Version | Previous Version | Text Only | Print | Product List | Glossary On
Versions: 1 2 3 4 5 6 7 8 9 10 11 12 13 14
000
FTUS45 KMSO 081720
TAFMSO
TAF
KMSO 081720Z 0818/0918 11012KT P6SM SCT060
     FM090600 12013KT P6SM -SN OVC050
     FM090800 12014KT 2SM -SN OVC020
     FM091500 10007KT 6SM -SHSN SCT020 OVC050=

USA.gov is the U.S. government's official web portal to all federal, state and local government web resources and services.